Time;durP1;ratioP1;P1;durP2;ratioP2;P2;SDS_P1;SDS_P2;PMS_P1;PMS_P2;Temp;Humidity;BMP_temperature;BMP_pressure;BME280_temperature;BME280_humidity;BME280_pressure;Samples;Min_cycle;Max_cycle;Signal;HPM_P1;HPM_P2
2022/07/07 00:01:15;;;;;;;;;;;;;;;28.93;43.09;100593.21;105194;1303;62973;-81
2022/07/07 00:03:40;;;;;;;;;;;;;;;28.93;43.17;100594.48;105200;1300;62075;-81
2022/07/07 00:06:06;;;;;;;;;;;;;;;28.92;43.00;100596.56;105292;1299;62063;-81
2022/07/07 00:08:31;;;;;;;;;;;;;;;28.92;43.27;100596.89;105184;1300;62062;-82
2022/07/07 00:10:56;;;;;;;;;;;;;;;28.92;43.26;100595.46;105170;1300;62115;-81
2022/07/07 00:13:22;;;;;;;;;;;;;;;28.92;43.16;100592.41;105177;1299;62753;-82
2022/07/07 00:15:48;;;;;;;;;;;;;;;28.91;43.13;100593.90;105191;1300;62069;-81
2022/07/07 00:18:13;;;;;;;;;;;;;;;28.91;43.14;100593.19;105186;1300;62104;-82
2022/07/07 00:20:39;;;;;;;;;;;;;;;28.91;43.26;100596.27;105175;1300;62050;-81
2022/07/07 00:23:04;;;;;;;;;;;;;;;28.91;43.37;100600.09;105186;1302;62225;-81
2022/07/07 00:25:30;;;;;;;;;;;;;;;28.91;43.34;100603.16;105192;1302;62049;-82
2022/07/07 00:27:56;;;;;;;;;;;;;;;28.91;43.39;100600.33;105228;1299;62080;-81
2022/07/07 00:30:21;;;;;;;;;;;;;;;28.91;43.39;100604.84;105224;1300;62808;-81
2022/07/07 00:32:47;;;;;;;;;;;;;;;28.90;43.17;100605.95;105258;1299;76710;-81
2022/07/07 00:35:12;;;;;;;;;;;;;;;28.90;43.15;100609.59;105204;1299;62053;-80
2022/07/07 00:37:37;;;;;;;;;;;;;;;28.91;43.40;100612.85;105155;1300;62095;-81
2022/07/07 00:40:04;;;;;;;;;;;;;;;28.90;43.43;100613.39;105180;1300;62174;-81
2022/07/07 00:42:29;;;;;;;;;;;;;;;28.90;43.46;100615.61;105173;1303;62246;-81
2022/07/07 00:44:54;;;;;;;;;;;;;;;28.89;43.52;100609.67;105223;1300;75652;-81
2022/07/07 00:47:21;;;;;;;;;;;;;;;28.90;43.45;100611.25;105177;1300;62086;-81
2022/07/07 00:49:46;;;;;;;;;;;;;;;28.89;43.60;100612.77;105194;1300;62097;-81
2022/07/07 00:52:12;;;;;;;;;;;;;;;28.90;43.53;100615.13;105149;1300;62175;-81
2022/07/07 00:54:37;;;;;;;;;;;;;;;28.89;43.15;100613.89;105213;1300;62218;-81
2022/07/07 00:57:04;;;;;;;;;;;;;;;28.89;43.48;100615.70;105291;1300;62039;-81
2022/07/07 00:59:29;;;;;;;;;;;;;;;28.88;43.55;100620.11;105168;1300;62085;-82
2022/07/07 01:01:55;;;;;;;;;;;;;;;28.89;43.54;100620.98;105200;1302;62018;-82
2022/07/07 01:04:21;;;;;;;;;;;;;;;28.88;43.49;100618.20;105188;1300;62148;-83
2022/07/07 01:06:46;;;;;;;;;;;;;;;28.88;43.63;100622.31;105228;1300;62087;-83
2022/07/07 01:09:12;;;;;;;;;;;;;;;28.89;43.64;100620.32;105116;1300;62062;-83
2022/07/07 01:12:03;;;;;;;;;;;;;;;28.88;43.53;100626.49;105212;1300;62187;-83
2022/07/07 01:14:29;;;;;;;;;;;;;;;28.88;43.67;100623.44;105148;1302;62062;-83
2022/07/07 01:16:55;;;;;;;;;;;;;;;28.88;43.54;100623.81;105148;1300;62091;-83
2022/07/07 01:19:20;;;;;;;;;;;;;;;28.88;43.61;100626.73;105181;1299;62035;-82
2022/07/07 01:21:49;;;;;;;;;;;;;;;28.88;43.62;100624.02;105175;1300;63298;-83
2022/07/07 01:24:14;;;;;;;;;;;;;;;28.88;43.46;100629.27;105102;1302;62770;-82
2022/07/07 01:26:40;;;;;;;;;;;;;;;28.87;43.63;100624.25;105253;1299;62067;-81
2022/07/07 01:29:05;;;;;;;;;;;;;;;28.87;43.61;100624.22;105251;1299;62168;-81
2022/07/07 01:31:31;;;;;;;;;;;;;;;28.87;43.86;100625.14;105338;1299;62167;-82
2022/07/07 01:33:56;;;;;;;;;;;;;;;28.87;43.62;100623.88;105288;1299;62085;-82
2022/07/07 01:36:21;;;;;;;;;;;;;;;28.87;43.77;100617.77;105168;1300;63245;-82
2022/07/07 01:38:48;;;;;;;;;;;;;;;28.87;43.65;100615.26;105253;1299;62088;-82
2022/07/07 01:41:13;;;;;;;;;;;;;;;28.86;43.71;100613.48;105031;1300;62890;-82
2022/07/07 01:43:38;;;;;;;;;;;;;;;28.86;43.85;100610.09;105187;1300;62163;-81
2022/07/07 01:46:04;;;;;;;;;;;;;;;28.86;43.71;100612.40;105282;1299;63396;-82
2022/07/07 01:48:30;;;;;;;;;;;;;;;28.86;43.82;100614.61;105189;1300;62083;-82
2022/07/07 01:50:56;;;;;;;;;;;;;;;28.86;43.68;100612.02;105152;1300;62029;-81
2022/07/07 01:53:21;;;;;;;;;;;;;;;28.86;43.66;100610.63;105170;1300;62068;-82
2022/07/07 01:55:48;;;;;;;;;;;;;;;28.85;43.77;100606.52;105161;1300;62114;-81
2022/07/07 01:58:13;;;;;;;;;;;;;;;28.85;43.63;100608.17;105234;1302;62509;-81
2022/07/07 02:00:39;;;;;;;;;;;;;;;28.85;43.78;100608.02;105261;1300;62048;-80
2022/07/07 02:03:04;;;;;;;;;;;;;;;28.85;43.74;100610.56;105227;1300;62053;-81
2022/07/07 02:05:30;;;;;;;;;;;;;;;28.85;43.80;100615.82;105208;1300;62089;-81
2022/07/07 02:07:55;;;;;;;;;;;;;;;28.85;43.83;100618.36;105256;1297;62069;-81
2022/07/07 02:13:05;;;;;;;;;;;;;;;28.84;43.80;100622.81;104933;1299;72823;-81
2022/07/07 02:15:31;;;;;;;;;;;;;;;28.84;43.67;100620.27;105222;1299;62032;-81
2022/07/07 02:17:56;;;;;;;;;;;;;;;28.84;43.75;100624.45;105163;1300;62091;-81
2022/07/07 02:20:21;;;;;;;;;;;;;;;28.83;43.78;100622.00;105150;1300;62094;-81
2022/07/07 02:22:47;;;;;;;;;;;;;;;28.83;43.80;100624.52;105086;1300;61533;-81
2022/07/07 02:25:12;;;;;;;;;;;;;;;28.83;43.81;100631.27;105172;1300;73824;-81
2022/07/07 02:27:38;;;;;;;;;;;;;;;28.83;43.80;100633.06;105235;1299;62076;-80
2022/07/07 02:30:04;;;;;;;;;;;;;;;28.82;43.69;100636.02;105160;1300;62163;-80
2022/07/07 02:32:30;;;;;;;;;;;;;;;28.83;43.80;100634.35;105190;1301;61971;-80
2022/07/07 02:34:58;;;;;;;;;;;;;;;28.81;43.79;100634.52;105162;1300;62180;-81
2022/07/07 02:37:24;;;;;;;;;;;;;;;28.81;43.95;100634.31;105187;1300;62271;-81
2022/07/07 02:39:51;;;;;;;;;;;;;;;28.81;43.90;100645.39;105224;1299;62074;-81
2022/07/07 02:42:16;;;;;;;;;;;;;;;28.81;43.95;100650.65;105215;1300;62079;-81
2022/07/07 02:44:42;;;;;;;;;;;;;;;28.81;43.94;100654.70;105190;1300;62077;-81
2022/07/07 02:47:07;;;;;;;;;;;;;;;28.81;43.81;100654.69;105170;1299;62087;-81
2022/07/07 02:49:33;;;;;;;;;;;;;;;28.81;43.82;100652.34;105143;1302;76535;-81
2022/07/07 02:51:58;;;;;;;;;;;;;;;28.80;43.95;100651.30;105191;1300;62097;-81
2022/07/07 02:54:24;;;;;;;;;;;;;;;28.80;43.69;100651.54;105217;1300;61672;-81
2022/07/07 02:56:50;;;;;;;;;;;;;;;28.80;43.89;100651.90;105192;1302;62073;-81
2022/07/07 02:59:15;;;;;;;;;;;;;;;28.79;44.00;100654.30;105198;1301;62145;-81
2022/07/07 03:01:40;;;;;;;;;;;;;;;28.79;43.81;100657.23;105199;1299;62085;-81
2022/07/07 03:04:06;;;;;;;;;;;;;;;28.79;43.85;100660.86;105158;1300;63280;-81
2022/07/07 03:06:31;;;;;;;;;;;;;;;28.78;43.74;100663.08;105217;1300;62069;-81
2022/07/07 03:08:57;;;;;;;;;;;;;;;28.78;43.81;100666.36;105275;1299;62113;-81
2022/07/07 03:11:22;;;;;;;;;;;;;;;28.78;43.75;100663.81;105300;1299;62133;-81
2022/07/07 03:13:49;;;;;;;;;;;;;;;28.77;43.91;100665.00;105174;1299;76524;-81
2022/07/07 03:16:14;;;;;;;;;;;;;;;28.77;43.89;100661.36;105226;1300;62255;-81
2022/07/07 03:18:40;;;;;;;;;;;;;;;28.77;43.77;100659.58;105209;1301;62063;-81
2022/07/07 03:21:05;;;;;;;;;;;;;;;28.77;43.70;100657.23;105270;1299;62164;-81
2022/07/07 03:23:31;;;;;;;;;;;;;;;28.76;43.88;100654.57;105169;1301;62120;-81
2022/07/07 03:25:57;;;;;;;;;;;;;;;28.76;43.75;100653.83;105250;1299;62187;-81
2022/07/07 03:28:22;;;;;;;;;;;;;;;28.77;43.70;100653.09;105171;1300;62081;-81
2022/07/07 03:30:47;;;;;;;;;;;;;;;28.76;43.65;100656.37;105083;1300;62137;-81
2022/07/07 03:33:13;;;;;;;;;;;;;;;28.76;43.75;100656.61;105040;1300;62082;-81
2022/07/07 03:35:39;;;;;;;;;;;;;;;28.74;43.88;100658.27;105198;1300;62077;-81
2022/07/07 03:38:05;;;;;;;;;;;;;;;28.69;43.52;100667.83;105194;1300;62165;-81
2022/07/07 03:40:30;;;;;;;;;;;;;;;28.64;43.69;100673.61;105232;1302;63272;-81
2022/07/07 03:42:56;;;;;;;;;;;;;;;28.55;43.01;100681.35;105261;1299;62778;-81
2022/07/07 03:45:21;;;;;;;;;;;;;;;28.50;43.27;100689.02;105187;1299;62021;-82
2022/07/07 03:47:47;;;;;;;;;;;;;;;28.48;43.25;100689.02;105178;1300;60548;-81
2022/07/07 03:50:12;;;;;;;;;;;;;;;28.49;43.27;100690.37;105265;1298;62628;-81
2022/07/07 03:52:38;;;;;;;;;;;;;;;28.51;43.28;100693.81;105221;1300;62082;-81
2022/07/07 03:55:04;;;;;;;;;;;;;;;28.51;42.94;100698.80;105152;1300;62161;-81
2022/07/07 03:57:29;;;;;;;;;;;;;;;28.53;43.25;100701.73;105218;1300;62136;-81
2022/07/07 03:59:55;;;;;;;;;;;;;;;28.54;43.05;100702.39;105175;1300;62071;-81
2022/07/07 04:02:20;;;;;;;;;;;;;;;28.54;42.86;100700.34;105215;1300;62081;-81
2022/07/07 04:04:46;;;;;;;;;;;;;;;28.54;43.04;100700.89;105284;1299;62687;-80
2022/07/07 04:07:11;;;;;;;;;;;;;;;28.54;42.56;100696.20;105281;1300;62193;-81
2022/07/07 04:09:37;;;;;;;;;;;;;;;28.54;42.58;100697.42;105186;1300;62078;-81
2022/07/07 04:12:02;;;;;;;;;;;;;;;28.54;42.59;100699.05;105269;1299;62048;-81
2022/07/07 04:14:28;;;;;;;;;;;;;;;28.54;42.35;100703.02;105293;1300;62115;-81
2022/07/07 04:16:54;;;;;;;;;;;;;;;28.54;42.38;100704.68;105205;1300;62181;-81
2022/07/07 04:19:20;;;;;;;;;;;;;;;28.54;42.52;100705.98;105218;1300;62174;-81
2022/07/07 04:21:45;;;;;;;;;;;;;;;28.54;42.36;100712.36;105240;1300;62186;-81
2022/07/07 04:24:11;;;;;;;;;;;;;;;28.54;42.38;100717.21;104941;1303;62087;-81
2022/07/07 04:26:37;;;;;;;;;;;;;;;28.53;42.27;100722.52;105158;1302;62032;-81
2022/07/07 04:29:02;;;;;;;;;;;;;;;28.53;42.18;100725.02;105195;1302;62088;-81
2022/07/07 04:31:28;;;;;;;;;;;;;;;28.54;42.17;100736.97;105066;1302;62245;-81
2022/07/07 04:33:53;;;;;;;;;;;;;;;28.54;42.15;100736.25;105189;1302;62085;-81
2022/07/07 04:36:19;;;;;;;;;;;;;;;28.54;42.13;100749.42;105137;1302;76341;-81
2022/07/07 04:38:45;;;;;;;;;;;;;;;28.53;41.80;100757.61;105146;1303;62066;-81
2022/07/07 04:41:10;;;;;;;;;;;;;;;28.53;41.75;100761.64;105219;1302;63245;-81
2022/07/07 04:43:36;;;;;;;;;;;;;;;28.53;41.60;100766.33;105021;1302;62089;-81
2022/07/07 04:46:01;;;;;;;;;;;;;;;28.53;41.71;100768.87;105226;1301;62034;-81
2022/07/07 04:48:27;;;;;;;;;;;;;;;28.53;41.68;100769.63;105128;1302;62115;-82
2022/07/07 04:50:53;;;;;;;;;;;;;;;28.53;41.83;100768.19;105005;1301;62075;-83
2022/07/07 04:53:19;;;;;;;;;;;;;;;28.53;41.69;100770.33;105057;1302;62092;-82
2022/07/07 04:55:44;;;;;;;;;;;;;;;28.52;41.71;100770.05;105164;1302;62050;-82
2022/07/07 04:58:10;;;;;;;;;;;;;;;28.52;41.38;100768.48;105136;1302;62238;-81
2022/07/07 05:00:36;;;;;;;;;;;;;;;28.51;41.56;100771.43;105206;1302;61951;-82
2022/07/07 05:03:02;;;;;;;;;;;;;;;28.51;41.62;100771.67;105190;1302;62088;-82
2022/07/07 05:05:27;;;;;;;;;;;;;;;28.51;41.41;100776.94;105100;1302;62117;-82
2022/07/07 05:07:53;;;;;;;;;;;;;;;28.50;41.25;100778.05;105258;1301;63404;-81
2022/07/07 05:10:18;;;;;;;;;;;;;;;28.49;41.38;100779.22;105177;1302;62145;-83
2022/07/07 05:12:44;;;;;;;;;;;;;;;28.49;41.34;100783.20;105224;1302;62075;-83
2022/07/07 05:15:09;;;;;;;;;;;;;;;28.49;41.36;100792.66;105177;1302;62252;-83
2022/07/07 05:17:36;;;;;;;;;;;;;;;28.49;41.39;100793.17;105130;1302;62206;-81
2022/07/07 05:20:03;;;;;;;;;;;;;;;28.49;41.45;100799.85;105102;1303;72725;-81
2022/07/07 05:22:28;;;;;;;;;;;;;;;28.49;41.35;100806.55;105202;1302;76494;-81
2022/07/07 05:24:53;;;;;;;;;;;;;;;28.49;41.27;100808.18;105123;1302;62143;-81
2022/07/07 05:27:19;;;;;;;;;;;;;;;28.50;41.54;100810.49;105113;1302;62009;-81
2022/07/07 05:29:44;;;;;;;;;;;;;;;28.50;41.32;100811.35;105136;1302;62081;-81
2022/07/07 05:32:10;;;;;;;;;;;;;;;28.51;41.47;100811.15;105170;1300;62013;-81
2022/07/07 05:34:35;;;;;;;;;;;;;;;28.51;41.24;100817.13;105132;1303;62117;-81
2022/07/07 05:37:01;;;;;;;;;;;;;;;28.50;41.22;100819.86;105181;1300;63282;-81
2022/07/07 05:39:28;;;;;;;;;;;;;;;28.50;41.37;100826.02;105188;1299;62005;-81
2022/07/07 05:41:53;;;;;;;;;;;;;;;28.50;41.28;100834.35;105211;1300;62038;-81
2022/07/07 05:44:19;;;;;;;;;;;;;;;28.50;41.32;100840.19;105134;1302;62183;-81
2022/07/07 05:46:44;;;;;;;;;;;;;;;28.49;41.36;100844.40;104974;1302;62024;-81
2022/07/07 05:49:10;;;;;;;;;;;;;;;28.48;41.51;100851.59;105118;1302;61969;-81
2022/07/07 05:51:35;;;;;;;;;;;;;;;28.48;41.53;100857.03;105148;1300;59551;-81
2022/07/07 05:54:01;;;;;;;;;;;;;;;28.48;41.59;100864.11;105023;1300;62139;-81
2022/07/07 05:56:26;;;;;;;;;;;;;;;28.48;41.51;100869.20;105125;1300;62159;-81
2022/07/07 05:58:52;;;;;;;;;;;;;;;28.48;41.42;100872.66;105077;1300;62599;-82
2022/07/07 06:01:17;;;;;;;;;;;;;;;28.47;41.56;100875.27;105149;1299;62093;-82
2022/07/07 06:03:42;;;;;;;;;;;;;;;28.47;41.69;100876.56;104994;1300;62112;-82
2022/07/07 06:06:08;;;;;;;;;;;;;;;28.45;41.52;100878.46;104881;1300;62171;-82
2022/07/07 06:08:33;;;;;;;;;;;;;;;28.45;41.68;100880.50;105087;1300;62059;-82
2022/07/07 06:10:59;;;;;;;;;;;;;;;28.45;41.64;100881.76;104949;1301;62120;-82
2022/07/07 06:13:24;;;;;;;;;;;;;;;28.44;41.71;100883.83;105161;1301;62079;-82
2022/07/07 06:15:50;;;;;;;;;;;;;;;28.43;41.78;100892.48;105040;1300;62096;-82
2022/07/07 06:18:16;;;;;;;;;;;;;;;28.42;41.88;100896.13;105012;1300;62094;-82
2022/07/07 06:20:41;;;;;;;;;;;;;;;28.41;41.88;100898.98;104849;1302;62037;-82
2022/07/07 06:23:07;;;;;;;;;;;;;;;28.40;41.82;100896.16;105003;1299;62061;-82
2022/07/07 06:25:32;;;;;;;;;;;;;;;28.39;41.92;100900.59;104990;1301;62496;-82
2022/07/07 06:27:58;;;;;;;;;;;;;;;28.39;41.96;100897.77;104215;1301;897076;-82
2022/07/07 06:30:24;;;;;;;;;;;;;;;28.37;42.02;100894.30;105122;1299;62121;-82
2022/07/07 06:32:49;;;;;;;;;;;;;;;28.35;42.06;100889.79;104983;1302;62085;-82
2022/07/07 06:35:16;;;;;;;;;;;;;;;28.35;42.00;100892.02;105025;1300;62117;-82
2022/07/07 06:37:41;;;;;;;;;;;;;;;28.34;42.22;100889.17;105024;1299;61999;-82
2022/07/07 06:40:07;;;;;;;;;;;;;;;28.33;42.28;100882.08;105087;1300;62180;-82
2022/07/07 06:42:32;;;;;;;;;;;;;;;28.33;42.43;100883.93;104948;1300;62084;-82
2022/07/07 06:44:59;;;;;;;;;;;;;;;28.32;42.25;100883.48;104986;1302;62203;-82
2022/07/07 06:47:24;;;;;;;;;;;;;;;28.31;42.39;100880.13;105078;1299;62104;-81
2022/07/07 06:49:50;;;;;;;;;;;;;;;28.31;42.38;100882.12;105075;1300;62187;-81
2022/07/07 06:52:15;;;;;;;;;;;;;;;28.30;42.46;100876.92;105102;1300;62101;-81
2022/07/07 06:54:41;;;;;;;;;;;;;;;28.30;42.49;100875.09;105046;1300;60166;-81
2022/07/07 06:57:07;;;;;;;;;;;;;;;28.29;42.35;100872.21;105149;1299;62045;-82
2022/07/07 06:59:33;;;;;;;;;;;;;;;28.27;42.25;100867.45;105206;1299;62037;-82
2022/07/07 07:01:59;;;;;;;;;;;;;;;28.24;42.43;100871.67;105050;1300;62099;-82
2022/07/07 07:04:24;;;;;;;;;;;;;;;28.22;42.28;100869.05;105151;1299;62214;-82
2022/07/07 07:06:50;;;;;;;;;;;;;;;28.21;42.50;100873.73;105006;1300;62062;-82
2022/07/07 07:09:15;;;;;;;;;;;;;;;28.18;42.52;100875.02;105159;1299;76542;-81
2022/07/07 07:11:41;;;;;;;;;;;;;;;28.17;42.59;100878.26;105179;1300;62076;-82
2022/07/07 07:14:06;;;;;;;;;;;;;;;28.15;42.45;100875.91;105154;1300;62247;-82
2022/07/07 07:16:32;;;;;;;;;;;;;;;28.15;42.54;100874.70;105149;1299;62190;-81
2022/07/07 07:18:58;;;;;;;;;;;;;;;28.14;42.54;100872.64;105188;1299;62084;-81
2022/07/07 07:21:23;;;;;;;;;;;;;;;28.13;42.60;100870.55;105167;1299;75600;-82
2022/07/07 07:23:49;;;;;;;;;;;;;;;28.11;42.69;100873.95;105169;1299;62159;-81
2022/07/07 07:26:14;;;;;;;;;;;;;;;28.10;42.50;100872.62;105071;1300;62817;-81
2022/07/07 07:28:40;;;;;;;;;;;;;;;28.09;42.51;100863.11;105075;1300;62057;-81
2022/07/07 07:31:05;;;;;;;;;;;;;;;28.08;42.56;100860.13;104977;1300;62065;-81
2022/07/07 07:33:31;;;;;;;;;;;;;;;28.07;42.58;100859.30;104983;1299;76938;-81
2022/07/07 07:35:57;;;;;;;;;;;;;;;28.04;42.52;100858.92;105145;1300;62085;-81
2022/07/07 07:38:22;;;;;;;;;;;;;;;27.97;42.58;100856.56;105075;1300;62083;-81
2022/07/07 07:40:48;;;;;;;;;;;;;;;27.87;42.24;100857.70;105086;1302;62069;-81
2022/07/07 07:43:13;;;;;;;;;;;;;;;27.85;42.49;100852.86;105198;1301;62079;-82
2022/07/07 07:45:38;;;;;;;;;;;;;;;27.86;42.60;100854.21;105145;1299;76506;-81
2022/07/07 07:48:04;;;;;;;;;;;;;;;27.85;42.41;100853.35;105113;1299;62111;-82
2022/07/07 07:50:30;;;;;;;;;;;;;;;27.80;42.58;100853.18;105121;1301;62185;-81
2022/07/07 07:52:56;;;;;;;;;;;;;;;27.57;42.16;100858.83;105175;1299;61972;-81
2022/07/07 07:55:21;;;;;;;;;;;;;;;27.37;42.58;100857.89;105135;1299;62186;-81
2022/07/07 07:57:47;;;;;;;;;;;;;;;27.33;42.81;100861.12;105146;1302;62099;-81
2022/07/07 08:00:14;;;;;;;;;;;;;;;27.32;42.91;100862.89;105119;1300;62069;-81
2022/07/07 08:02:39;;;;;;;;;;;;;;;27.28;42.68;100867.79;105094;1302;62154;-81
2022/07/07 08:05:05;;;;;;;;;;;;;;;27.16;42.76;100876.31;105145;1299;62160;-81
2022/07/07 08:07:32;;;;;;;;;;;;;;;27.09;42.94;100880.59;105235;1299;62145;-80
2022/07/07 08:09:58;;;;;;;;;;;;;;;27.13;42.98;100885.34;105154;1299;63305;-81
2022/07/07 08:12:23;;;;;;;;;;;;;;;27.18;43.09;100890.77;105166;1299;62212;-81
2022/07/07 08:14:49;;;;;;;;;;;;;;;27.24;43.01;100895.96;105146;1299;62086;-80
2022/07/07 08:17:15;;;;;;;;;;;;;;;27.30;42.83;100901.02;105119;1301;62097;-81
2022/07/07 08:19:40;;;;;;;;;;;;;;;27.33;42.83;100905.80;105147;1299;76429;-80
2022/07/07 08:22:05;;;;;;;;;;;;;;;27.31;42.74;100912.17;105161;1298;62853;-81
2022/07/07 08:24:31;;;;;;;;;;;;;;;27.32;43.02;100920.70;105103;1300;60605;-81
2022/07/07 08:26:56;;;;;;;;;;;;;;;27.36;43.11;100929.88;105094;1300;62107;-81
2022/07/07 08:29:22;;;;;;;;;;;;;;;27.39;42.83;100930.67;105114;1302;62117;-81
2022/07/07 08:31:47;;;;;;;;;;;;;;;27.42;43.05;100942.36;105133;1299;62073;-81
2022/07/07 08:34:13;;;;;;;;;;;;;;;27.45;42.84;100947.65;105141;1300;62526;-81
2022/07/07 08:36:38;;;;;;;;;;;;;;;27.48;42.79;100955.71;104947;1300;62058;-81
2022/07/07 08:39:04;;;;;;;;;;;;;;;27.50;42.81;100954.91;105024;1299;62081;-81
2022/07/07 08:41:29;;;;;;;;;;;;;;;27.52;42.82;100951.84;105162;1299;60976;-81
2022/07/07 08:43:58;;;;;;;;;;;;;;;27.56;42.93;100954.54;105094;1300;62208;-81
2022/07/07 08:46:23;;;;;;;;;;;;;;;27.60;42.87;100960.32;105088;1301;62053;-83
2022/07/07 08:48:48;;;;;;;;;;;;;;;27.63;42.58;100958.45;105121;1301;62167;-81
2022/07/07 08:51:15;;;;;;;;;;;;;;;27.65;42.80;100956.61;104995;1300;62206;-81
2022/07/07 08:53:40;;;;;;;;;;;;;;;27.66;42.62;100953.59;105101;1302;61982;-81
2022/07/07 08:56:07;;;;;;;;;;;;;;;27.67;42.84;100949.19;105051;1299;62235;-82
2022/07/07 08:58:35;;;;;;;;;;;;;;;27.68;42.54;100944.48;105036;1301;62081;-81
2022/07/07 09:01:02;;;;;;;;;;;;;;;27.69;42.57;100941.35;105038;1299;61966;-81
2022/07/07 09:03:27;;;;;;;;;;;;;;;27.70;42.47;100946.13;105094;1301;62190;-81
2022/07/07 09:05:53;;;;;;;;;;;;;;;27.71;42.70;100951.17;105192;1299;62171;-81
2022/07/07 09:08:19;;;;;;;;;;;;;;;27.71;42.65;100950.40;105065;1300;62049;-81
2022/07/07 09:10:45;;;;;;;;;;;;;;;27.72;42.56;100950.99;105190;1299;62059;-81
2022/07/07 09:13:20;;;;;;;;;;;;;;;27.71;42.63;100947.14;105215;1299;62065;-80
2022/07/07 09:15:46;;;;;;;;;;;;;;;27.70;42.62;100942.15;105015;1299;76544;-81
2022/07/07 09:18:12;;;;;;;;;;;;;;;27.71;42.85;100940.44;104908;1300;62571;-81
2022/07/07 09:20:37;;;;;;;;;;;;;;;27.71;42.67;100942.77;105058;1300;62212;-81
2022/07/07 09:23:03;;;;;;;;;;;;;;;27.73;42.57;100940.84;105082;1299;62059;-81
2022/07/07 09:25:28;;;;;;;;;;;;;;;27.73;42.79;100941.64;105172;1300;62174;-81
2022/07/07 09:27:55;;;;;;;;;;;;;;;27.74;42.80;100939.23;105091;1300;76546;-81
2022/07/07 09:30:37;;;;;;;;;;;;;;;27.75;42.69;100936.65;105101;1300;61944;-81
2022/07/07 09:33:23;;;;;;;;;;;;;;;27.74;42.69;100936.53;105217;1299;61918;-81
2022/07/07 09:38:33;;;;;;;;;;;;;;;27.71;42.76;100936.05;104927;1298;75675;-81
2022/07/07 09:41:05;;;;;;;;;;;;;;;27.72;42.78;100938.16;105225;1299;62183;-81
2022/07/07 09:43:32;;;;;;;;;;;;;;;27.72;42.72;100934.71;105205;1299;62079;-81
2022/07/07 09:46:12;;;;;;;;;;;;;;;27.72;42.90;100936.69;105127;1300;62070;-81
2022/07/07 09:48:38;;;;;;;;;;;;;;;27.72;42.73;100937.15;105171;1299;76516;-81
2022/07/07 09:51:30;;;;;;;;;;;;;;;27.73;42.56;100933.40;105193;1299;61953;-81
2022/07/07 09:54:00;;;;;;;;;;;;;;;27.75;42.63;100931.05;104657;1305;62213;-81
2022/07/07 09:56:29;;;;;;;;;;;;;;;27.76;42.84;100928.90;104690;1306;72707;-81
2022/07/07 09:58:55;;;;;;;;;;;;;;;27.78;42.59;100923.86;104548;1308;75570;-81
2022/07/07 10:01:25;;;;;;;;;;;;;;;27.80;42.58;100923.16;104542;1306;62766;-81
2022/07/07 10:03:51;;;;;;;;;;;;;;;27.82;42.54;100920.05;104680;1305;62066;-81
2022/07/07 10:06:17;;;;;;;;;;;;;;;27.83;42.77;100923.20;104570;1305;73937;-81
2022/07/07 10:08:43;;;;;;;;;;;;;;;27.82;42.70;100920.44;104730;1305;62109;-81
2022/07/07 10:11:09;;;;;;;;;;;;;;;27.82;42.71;100924.90;104581;1308;62340;-81
2022/07/07 10:13:34;;;;;;;;;;;;;;;27.83;42.55;100927.69;104477;1308;62078;-81
2022/07/07 10:16:00;;;;;;;;;;;;;;;27.83;42.53;100928.64;104658;1305;62161;-81
2022/07/07 10:18:25;;;;;;;;;;;;;;;27.80;42.62;100928.19;104656;1305;62200;-81
2022/07/07 10:20:51;;;;;;;;;;;;;;;27.77;42.66;100927.77;104673;1305;76756;-81
2022/07/07 10:23:16;;;;;;;;;;;;;;;27.78;42.73;100930.40;104630;1305;62248;-81
2022/07/07 10:25:42;;;;;;;;;;;;;;;27.79;42.86;100929.95;104557;1308;62201;-81
2022/07/07 10:28:08;;;;;;;;;;;;;;;27.80;42.45;100931.45;104555;1306;62182;-81
2022/07/07 10:30:34;;;;;;;;;;;;;;;27.82;42.76;100928.00;104668;1301;61986;-81
2022/07/07 10:33:01;;;;;;;;;;;;;;;27.83;42.61;100931.52;105031;1301;75789;-81
2022/07/07 10:35:27;;;;;;;;;;;;;;;27.84;42.59;100928.54;105034;1302;62082;-81
2022/07/07 10:37:54;;;;;;;;;;;;;;;27.85;42.66;100927.73;105136;1302;62042;-81
2022/07/07 10:40:24;;;;;;;;;;;;;;;27.86;42.91;100926.65;105025;1302;61960;-81
2022/07/07 10:42:56;;;;;;;;;;;;;;;27.88;42.54;100927.00;104975;1300;76418;-81
2022/07/07 10:45:22;;;;;;;;;;;;;;;27.90;42.67;100920.52;105064;1299;60595;-82
2022/07/07 10:47:49;;;;;;;;;;;;;;;27.91;42.62;100917.70;104948;1300;62184;-82
2022/07/07 10:50:36;;;;;;;;;;;;;;;27.93;42.81;100919.16;104903;1302;62092;-81
2022/07/07 10:53:01;;;;;;;;;;;;;;;27.95;42.62;100921.17;105121;1302;75631;-82
2022/07/07 10:55:45;;;;;;;;;;;;;;;27.96;42.80;100922.64;104966;1302;62475;-81
2022/07/07 10:58:11;;;;;;;;;;;;;;;27.98;42.70;100920.46;104691;1302;62094;-81
2022/07/07 11:00:36;;;;;;;;;;;;;;;27.99;42.73;100915.29;104733;1302;62038;-81
2022/07/07 11:03:09;;;;;;;;;;;;;;;28.00;42.86;100918.98;105027;1301;62052;-81
2022/07/07 11:05:36;;;;;;;;;;;;;;;28.02;42.87;100921.00;105150;1302;61989;-81
2022/07/07 11:08:06;;;;;;;;;;;;;;;28.02;42.72;100922.81;105049;1302;62199;-81
2022/07/07 11:10:38;;;;;;;;;;;;;;;28.01;42.75;100919.59;105098;1299;73765;-81
2022/07/07 11:13:16;;;;;;;;;;;;;;;28.01;42.96;100916.55;105087;1299;75515;-82
2022/07/07 11:15:43;;;;;;;;;;;;;;;28.00;42.71;100913.54;105095;1300;62137;-81
2022/07/07 11:18:15;;;;;;;;;;;;;;;28.00;42.64;100914.10;105100;1300;61992;-81
2022/07/07 11:20:50;;;;;;;;;;;;;;;27.98;42.69;100916.35;105026;1302;72730;-81
2022/07/07 11:23:15;;;;;;;;;;;;;;;27.94;42.83;100913.06;104966;1299;75711;-81
2022/07/07 11:25:41;;;;;;;;;;;;;;;27.95;42.97;100915.48;104990;1300;60248;-81
2022/07/07 11:28:08;;;;;;;;;;;;;;;27.97;42.95;100916.45;104963;1300;62081;-81
2022/07/07 11:30:33;;;;;;;;;;;;;;;27.96;42.66;100913.41;105013;1299;61937;-81
2022/07/07 11:32:59;;;;;;;;;;;;;;;27.95;42.83;100915.35;105085;1299;62097;-81
2022/07/07 11:35:35;;;;;;;;;;;;;;;27.94;42.92;100913.40;105119;1298;62066;-81
2022/07/07 11:38:01;;;;;;;;;;;;;;;27.96;42.90;100913.48;105201;1299;62106;-81
2022/07/07 11:40:28;;;;;;;;;;;;;;;27.96;43.03;100909.61;105187;1299;72621;-81
2022/07/07 11:42:54;;;;;;;;;;;;;;;27.97;42.91;100909.50;105190;1299;62062;-81
2022/07/07 11:45:20;;;;;;;;;;;;;;;27.98;42.70;100910.56;105188;1299;62176;-81
2022/07/07 11:47:46;;;;;;;;;;;;;;;27.98;42.91;100907.46;105227;1299;62792;-81
2022/07/07 11:50:12;;;;;;;;;;;;;;;27.95;42.82;100909.17;105204;1299;63109;-81
2022/07/07 11:52:37;;;;;;;;;;;;;;;27.95;42.73;100908.80;105190;1299;62056;-81
2022/07/07 11:55:04;;;;;;;;;;;;;;;27.95;43.00;100910.05;105170;1299;62241;-81
2022/07/07 11:57:33;;;;;;;;;;;;;;;27.95;42.68;100907.89;105163;1300;61973;-81
2022/07/07 12:00:12;;;;;;;;;;;;;;;27.95;42.98;100905.61;105101;1302;61961;-81
2022/07/07 12:02:37;;;;;;;;;;;;;;;27.95;42.92;100907.71;105016;1302;73004;-81
2022/07/07 12:05:03;;;;;;;;;;;;;;;27.95;42.96;100905.71;105147;1302;62065;-81
2022/07/07 12:07:28;;;;;;;;;;;;;;;27.94;42.93;100907.81;105078;1302;62364;-81
2022/07/07 12:09:54;;;;;;;;;;;;;;;27.92;43.12;100901.62;105097;1302;62179;-81
2022/07/07 12:12:19;;;;;;;;;;;;;;;27.93;42.93;100903.02;105193;1301;62091;-81
2022/07/07 12:14:45;;;;;;;;;;;;;;;27.95;42.94;100902.89;105094;1302;72782;-81
2022/07/07 12:17:10;;;;;;;;;;;;;;;27.96;43.09;100903.81;105032;1301;62063;-81
2022/07/07 12:19:49;;;;;;;;;;;;;;;27.98;43.07;100903.33;105029;1301;62143;-81
2022/07/07 12:22:30;;;;;;;;;;;;;;;27.99;42.95;100902.66;105064;1301;61934;-81
2022/07/07 12:25:00;;;;;;;;;;;;;;;28.01;42.96;100901.95;105095;1302;73819;-81
2022/07/07 12:27:26;;;;;;;;;;;;;;;28.02;43.14;100902.59;105141;1301;76598;-81